Dongsha Dao, China
Current Conditions -  °F | °C
As of 11:00 AM on Sunday 23 Nov 2014 (Local Time) from ZGOW Reporting Station
Few Clouds Few Clouds  
Wind Chill: 75°   Ceiling: Unl
Heat Index: 75°   Visibility: 5mi
Dew Point: 64°   Wind: 4mph
Humidity: 69%   Direction: 130°SE
Pressure: 30.09"   Gusts: NA
Location:  20.67°N, 116.72°E
Report Text: ZGOW 230300Z 13002MPS 070V200 8000 FEW040 24/18 Q1019 NOSIG
Loading
Personal Weather Stations






























Interactive Weather Map New forecast layout! Learn more

10-Day Weather Forecast

Advertisements
Track Severe Weather on mobile